sensor_id;sensor_type;location;lat;lon;timestamp;P1;durP1;ratioP1;P2;durP2;ratioP2
56073;SDS011;41950;55.840;37.442;2022-07-06T00:01:40;28.27;;;25.85;;
56073;SDS011;41950;55.840;37.442;2022-07-06T00:04:05;29.23;;;26.63;;
56073;SDS011;41950;55.840;37.442;2022-07-06T00:06:31;30.77;;;28.02;;
56073;SDS011;41950;55.840;37.442;2022-07-06T00:08:57;30.00;;;27.30;;
56073;SDS011;41950;55.840;37.442;2022-07-06T00:11:23;29.02;;;26.52;;
56073;SDS011;41950;55.840;37.442;2022-07-06T00:13:48;31.13;;;28.20;;
56073;SDS011;41950;55.840;37.442;2022-07-06T00:16:14;28.90;;;26.52;;
56073;SDS011;41950;55.840;37.442;2022-07-06T00:18:40;31.25;;;28.27;;
56073;SDS011;41950;55.840;37.442;2022-07-06T00:21:05;28.90;;;26.30;;
56073;SDS011;41950;55.840;37.442;2022-07-06T00:23:31;27.48;;;24.88;;
56073;SDS011;41950;55.840;37.442;2022-07-06T00:25:56;26.10;;;23.70;;
56073;SDS011;41950;55.840;37.442;2022-07-06T00:28:22;28.40;;;26.00;;
56073;SDS011;41950;55.840;37.442;2022-07-06T00:30:47;28.92;;;26.42;;
56073;SDS011;41950;55.840;37.442;2022-07-06T00:33:13;28.45;;;25.95;;
56073;SDS011;41950;55.840;37.442;2022-07-06T00:35:38;27.52;;;25.02;;
56073;SDS011;41950;55.840;37.442;2022-07-06T00:38:04;28.05;;;25.65;;
56073;SDS011;41950;55.840;37.442;2022-07-06T00:40:29;27.27;;;24.88;;
56073;SDS011;41950;55.840;37.442;2022-07-06T00:42:55;30.23;;;27.42;;
56073;SDS011;41950;55.840;37.442;2022-07-06T00:45:21;28.15;;;25.75;;
56073;SDS011;41950;55.840;37.442;2022-07-06T00:47:47;28.05;;;25.40;;
56073;SDS011;41950;55.840;37.442;2022-07-06T00:50:13;30.15;;;27.40;;
56073;SDS011;41950;55.840;37.442;2022-07-06T00:52:44;29.15;;;26.30;;
56073;SDS011;41950;55.840;37.442;2022-07-06T00:55:11;29.08;;;25.50;;
56073;SDS011;41950;55.840;37.442;2022-07-06T00:57:38;28.92;;;26.10;;
56073;SDS011;41950;55.840;37.442;2022-07-06T01:00:05;29.65;;;26.63;;
56073;SDS011;41950;55.840;37.442;2022-07-06T01:02:36;36.92;;;23.88;;
56073;SDS011;41950;55.840;37.442;2022-07-06T01:05:03;35.88;;;25.05;;
56073;SDS011;41950;55.840;37.442;2022-07-06T01:07:30;34.85;;;23.77;;
56073;SDS011;41950;55.840;37.442;2022-07-06T01:09:56;28.55;;;24.60;;
56073;SDS011;41950;55.840;37.442;2022-07-06T01:12:21;31.00;;;24.88;;
56073;SDS011;41950;55.840;37.442;2022-07-06T01:14:48;28.13;;;24.98;;
56073;SDS011;41950;55.840;37.442;2022-07-06T01:17:14;29.67;;;26.35;;
56073;SDS011;41950;55.840;37.442;2022-07-06T01:19:40;26.88;;;23.98;;
56073;SDS011;41950;55.840;37.442;2022-07-06T01:22:06;26.67;;;23.85;;
56073;SDS011;41950;55.840;37.442;2022-07-06T01:24:34;28.02;;;25.17;;
56073;SDS011;41950;55.840;37.442;2022-07-06T01:27:00;30.13;;;26.02;;
56073;SDS011;41950;55.840;37.442;2022-07-06T01:29:26;26.75;;;23.92;;
56073;SDS011;41950;55.840;37.442;2022-07-06T01:31:52;26.45;;;23.70;;
56073;SDS011;41950;55.840;37.442;2022-07-06T01:34:18;27.88;;;24.70;;
56073;SDS011;41950;55.840;37.442;2022-07-06T01:36:44;31.98;;;27.20;;
56073;SDS011;41950;55.840;37.442;2022-07-06T01:39:10;27.05;;;24.38;;
56073;SDS011;41950;55.840;37.442;2022-07-06T01:41:36;30.35;;;27.45;;
56073;SDS011;41950;55.840;37.442;2022-07-06T01:44:03;28.10;;;25.67;;
56073;SDS011;41950;55.840;37.442;2022-07-06T01:46:29;28.83;;;25.85;;
56073;SDS011;41950;55.840;37.442;2022-07-06T01:48:55;30.38;;;27.48;;
56073;SDS011;41950;55.840;37.442;2022-07-06T01:51:20;30.98;;;27.90;;
56073;SDS011;41950;55.840;37.442;2022-07-06T01:53:46;27.83;;;25.08;;
56073;SDS011;41950;55.840;37.442;2022-07-06T01:56:12;31.63;;;28.65;;
56073;SDS011;41950;55.840;37.442;2022-07-06T01:58:38;29.15;;;26.42;;
56073;SDS011;41950;55.840;37.442;2022-07-06T02:01:07;28.42;;;25.85;;
56073;SDS011;41950;55.840;37.442;2022-07-06T02:03:33;28.60;;;25.90;;
56073;SDS011;41950;55.840;37.442;2022-07-06T02:06:00;28.25;;;25.85;;
56073;SDS011;41950;55.840;37.442;2022-07-06T02:08:26;28.25;;;25.70;;
56073;SDS011;41950;55.840;37.442;2022-07-06T02:10:51;30.52;;;27.75;;
56073;SDS011;41950;55.840;37.442;2022-07-06T02:13:17;25.40;;;22.95;;
56073;SDS011;41950;55.840;37.442;2022-07-06T02:15:42;27.45;;;24.95;;
56073;SDS011;41950;55.840;37.442;2022-07-06T02:18:08;27.05;;;24.80;;
56073;SDS011;41950;55.840;37.442;2022-07-06T02:20:33;27.38;;;24.88;;
56073;SDS011;41950;55.840;37.442;2022-07-06T02:22:59;28.85;;;26.35;;
56073;SDS011;41950;55.840;37.442;2022-07-06T02:25:24;27.20;;;24.90;;
56073;SDS011;41950;55.840;37.442;2022-07-06T02:27:50;26.90;;;24.58;;
56073;SDS011;41950;55.840;37.442;2022-07-06T02:30:15;25.65;;;23.25;;
56073;SDS011;41950;55.840;37.442;2022-07-06T02:32:41;27.13;;;24.77;;
56073;SDS011;41950;55.840;37.442;2022-07-06T02:35:07;27.65;;;25.30;;
56073;SDS011;41950;55.840;37.442;2022-07-06T02:37:33;28.90;;;26.38;;
56073;SDS011;41950;55.840;37.442;2022-07-06T02:39:58;27.02;;;24.85;;
56073;SDS011;41950;55.840;37.442;2022-07-06T02:42:24;27.65;;;25.25;;
56073;SDS011;41950;55.840;37.442;2022-07-06T02:44:51;30.08;;;27.27;;
56073;SDS011;41950;55.840;37.442;2022-07-06T02:47:18;28.40;;;26.00;;
56073;SDS011;41950;55.840;37.442;2022-07-06T02:49:43;29.42;;;26.88;;
56073;SDS011;41950;55.840;37.442;2022-07-06T02:52:09;27.60;;;25.30;;
56073;SDS011;41950;55.840;37.442;2022-07-06T02:54:34;26.73;;;24.50;;
56073;SDS011;41950;55.840;37.442;2022-07-06T02:57:00;27.67;;;25.48;;
56073;SDS011;41950;55.840;37.442;2022-07-06T02:59:25;28.60;;;26.10;;
56073;SDS011;41950;55.840;37.442;2022-07-06T03:01:50;28.83;;;26.23;;
56073;SDS011;41950;55.840;37.442;2022-07-06T03:04:16;26.98;;;24.67;;
56073;SDS011;41950;55.840;37.442;2022-07-06T03:06:42;26.25;;;24.05;;
56073;SDS011;41950;55.840;37.442;2022-07-06T03:09:07;27.13;;;24.90;;
56073;SDS011;41950;55.840;37.442;2022-07-06T03:11:33;27.52;;;25.13;;
56073;SDS011;41950;55.840;37.442;2022-07-06T03:14:02;28.15;;;25.67;;
56073;SDS011;41950;55.840;37.442;2022-07-06T03:16:28;29.55;;;26.65;;
56073;SDS011;41950;55.840;37.442;2022-07-06T03:18:54;29.42;;;26.77;;
56073;SDS011;41950;55.840;37.442;2022-07-06T03:21:19;28.10;;;25.75;;
56073;SDS011;41950;55.840;37.442;2022-07-06T03:23:45;29.15;;;26.65;;
56073;SDS011;41950;55.840;37.442;2022-07-06T03:26:10;26.85;;;24.58;;
56073;SDS011;41950;55.840;37.442;2022-07-06T03:28:36;26.58;;;24.30;;
56073;SDS011;41950;55.840;37.442;2022-07-06T03:31:02;25.02;;;22.73;;
56073;SDS011;41950;55.840;37.442;2022-07-06T03:33:28;23.42;;;21.52;;
56073;SDS011;41950;55.840;37.442;2022-07-06T03:35:53;23.23;;;21.23;;
56073;SDS011;41950;55.840;37.442;2022-07-06T03:38:19;23.70;;;21.38;;
56073;SDS011;41950;55.840;37.442;2022-07-06T03:40:44;24.95;;;22.75;;
56073;SDS011;41950;55.840;37.442;2022-07-06T03:43:10;24.77;;;22.65;;
56073;SDS011;41950;55.840;37.442;2022-07-06T03:45:35;27.70;;;25.08;;
56073;SDS011;41950;55.840;37.442;2022-07-06T03:48:01;23.85;;;21.52;;
56073;SDS011;41950;55.840;37.442;2022-07-06T03:50:28;24.63;;;22.45;;
56073;SDS011;41950;55.840;37.442;2022-07-06T03:52:54;25.52;;;23.23;;
56073;SDS011;41950;55.840;37.442;2022-07-06T03:55:19;23.23;;;21.13;;
56073;SDS011;41950;55.840;37.442;2022-07-06T03:57:45;24.35;;;22.15;;
56073;SDS011;41950;55.840;37.442;2022-07-06T04:00:10;24.48;;;22.27;;
56073;SDS011;41950;55.840;37.442;2022-07-06T04:02:36;23.88;;;21.75;;
56073;SDS011;41950;55.840;37.442;2022-07-06T04:05:02;24.00;;;21.90;;
56073;SDS011;41950;55.840;37.442;2022-07-06T04:07:28;23.70;;;21.65;;
56073;SDS011;41950;55.840;37.442;2022-07-06T04:09:53;19.00;;;17.17;;
56073;SDS011;41950;55.840;37.442;2022-07-06T04:12:19;19.10;;;17.40;;
56073;SDS011;41950;55.840;37.442;2022-07-06T04:14:47;18.00;;;16.50;;
56073;SDS011;41950;55.840;37.442;2022-07-06T04:17:12;18.40;;;16.75;;
56073;SDS011;41950;55.840;37.442;2022-07-06T04:19:57;17.77;;;16.17;;
56073;SDS011;41950;55.840;37.442;2022-07-06T04:22:23;18.13;;;16.35;;
56073;SDS011;41950;55.840;37.442;2022-07-06T04:24:48;17.70;;;16.00;;
56073;SDS011;41950;55.840;37.442;2022-07-06T04:27:14;17.70;;;16.10;;
56073;SDS011;41950;55.840;37.442;2022-07-06T04:29:39;18.13;;;16.55;;
56073;SDS011;41950;55.840;37.442;2022-07-06T04:32:05;16.85;;;15.45;;
56073;SDS011;41950;55.840;37.442;2022-07-06T04:34:31;16.00;;;14.63;;
56073;SDS011;41950;55.840;37.442;2022-07-06T04:36:56;15.45;;;14.13;;
56073;SDS011;41950;55.840;37.442;2022-07-06T04:39:22;14.35;;;13.15;;
56073;SDS011;41950;55.840;37.442;2022-07-06T04:41:47;14.48;;;13.07;;
56073;SDS011;41950;55.840;37.442;2022-07-06T04:44:13;13.70;;;12.52;;
56073;SDS011;41950;55.840;37.442;2022-07-06T04:46:38;14.18;;;12.98;;
56073;SDS011;41950;55.840;37.442;2022-07-06T04:49:04;13.57;;;12.35;;
56073;SDS011;41950;55.840;37.442;2022-07-06T04:51:29;13.70;;;12.55;;
56073;SDS011;41950;55.840;37.442;2022-07-06T04:53:55;13.63;;;12.45;;
56073;SDS011;41950;55.840;37.442;2022-07-06T04:56:20;14.85;;;13.52;;
56073;SDS011;41950;55.840;37.442;2022-07-06T04:58:46;13.82;;;12.63;;
56073;SDS011;41950;55.840;37.442;2022-07-06T05:01:11;15.50;;;14.10;;
56073;SDS011;41950;55.840;37.442;2022-07-06T05:03:37;13.85;;;12.65;;
56073;SDS011;41950;55.840;37.442;2022-07-06T05:06:05;15.68;;;14.18;;
56073;SDS011;41950;55.840;37.442;2022-07-06T05:08:32;14.68;;;13.35;;
56073;SDS011;41950;55.840;37.442;2022-07-06T05:10:58;14.32;;;13.00;;
56073;SDS011;41950;55.840;37.442;2022-07-06T05:13:23;14.93;;;13.43;;
56073;SDS011;41950;55.840;37.442;2022-07-06T05:15:49;15.35;;;14.00;;
56073;SDS011;41950;55.840;37.442;2022-07-06T05:18:14;13.77;;;12.48;;
56073;SDS011;41950;55.840;37.442;2022-07-06T05:20:40;12.27;;;11.07;;
56073;SDS011;41950;55.840;37.442;2022-07-06T05:23:05;13.32;;;12.02;;
56073;SDS011;41950;55.840;37.442;2022-07-06T05:25:31;13.30;;;12.10;;
56073;SDS011;41950;55.840;37.442;2022-07-06T05:27:58;13.20;;;12.15;;
56073;SDS011;41950;55.840;37.442;2022-07-06T05:30:24;12.73;;;11.50;;
56073;SDS011;41950;55.840;37.442;2022-07-06T05:32:50;12.68;;;11.57;;
56073;SDS011;41950;55.840;37.442;2022-07-06T05:35:16;11.65;;;10.55;;
56073;SDS011;41950;55.840;37.442;2022-07-06T05:37:41;13.15;;;11.95;;
56073;SDS011;41950;55.840;37.442;2022-07-06T05:40:07;14.70;;;13.38;;
56073;SDS011;41950;55.840;37.442;2022-07-06T05:42:33;15.52;;;14.15;;
56073;SDS011;41950;55.840;37.442;2022-07-06T05:44:59;16.38;;;14.88;;
56073;SDS011;41950;55.840;37.442;2022-07-06T05:47:24;13.88;;;12.60;;
56073;SDS011;41950;55.840;37.442;2022-07-06T05:50:09;16.83;;;15.32;;
56073;SDS011;41950;55.840;37.442;2022-07-06T05:52:42;20.60;;;18.60;;
56073;SDS011;41950;55.840;37.442;2022-07-06T05:55:10;18.55;;;16.90;;
56073;SDS011;41950;55.840;37.442;2022-07-06T05:57:37;19.92;;;17.20;;
56073;SDS011;41950;55.840;37.442;2022-07-06T06:00:06;17.17;;;15.57;;
56073;SDS011;41950;55.840;37.442;2022-07-06T06:02:36;12.65;;;11.35;;
56073;SDS011;41950;55.840;37.442;2022-07-06T06:05:02;14.43;;;13.13;;
56073;SDS011;41950;55.840;37.442;2022-07-06T06:07:28;13.98;;;12.57;;
56073;SDS011;41950;55.840;37.442;2022-07-06T06:09:54;13.10;;;11.85;;
56073;SDS011;41950;55.840;37.442;2022-07-06T06:12:19;12.68;;;11.38;;
56073;SDS011;41950;55.840;37.442;2022-07-06T06:14:45;12.60;;;11.43;;
56073;SDS011;41950;55.840;37.442;2022-07-06T06:17:10;12.60;;;11.40;;
56073;SDS011;41950;55.840;37.442;2022-07-06T06:19:36;12.57;;;10.65;;
56073;SDS011;41950;55.840;37.442;2022-07-06T06:22:02;12.95;;;11.82;;
56073;SDS011;41950;55.840;37.442;2022-07-06T06:24:28;13.00;;;11.65;;
56073;SDS011;41950;55.840;37.442;2022-07-06T06:26:53;13.23;;;12.02;;
56073;SDS011;41950;55.840;37.442;2022-07-06T06:29:19;13.43;;;12.23;;
56073;SDS011;41950;55.840;37.442;2022-07-06T06:31:44;14.57;;;13.18;;
56073;SDS011;41950;55.840;37.442;2022-07-06T06:34:10;13.63;;;12.32;;
56073;SDS011;41950;55.840;37.442;2022-07-06T06:36:35;13.57;;;12.27;;
56073;SDS011;41950;55.840;37.442;2022-07-06T06:39:01;13.63;;;12.38;;
56073;SDS011;41950;55.840;37.442;2022-07-06T06:41:27;13.30;;;12.00;;
56073;SDS011;41950;55.840;37.442;2022-07-06T06:43:53;14.43;;;11.82;;
56073;SDS011;41950;55.840;37.442;2022-07-06T06:46:18;13.30;;;12.10;;
56073;SDS011;41950;55.840;37.442;2022-07-06T06:48:44;13.65;;;12.30;;
56073;SDS011;41950;55.840;37.442;2022-07-06T06:51:09;14.98;;;13.50;;
56073;SDS011;41950;55.840;37.442;2022-07-06T06:53:34;15.98;;;14.57;;
56073;SDS011;41950;55.840;37.442;2022-07-06T06:56:00;17.00;;;15.40;;
56073;SDS011;41950;55.840;37.442;2022-07-06T06:58:26;16.40;;;14.85;;
56073;SDS011;41950;55.840;37.442;2022-07-06T07:00:51;17.10;;;15.38;;
56073;SDS011;41950;55.840;37.442;2022-07-06T07:03:17;14.18;;;12.88;;
56073;SDS011;41950;55.840;37.442;2022-07-06T07:05:42;14.00;;;12.60;;
56073;SDS011;41950;55.840;37.442;2022-07-06T07:08:08;11.93;;;10.73;;
56073;SDS011;41950;55.840;37.442;2022-07-06T07:10:33;12.65;;;11.55;;
56073;SDS011;41950;55.840;37.442;2022-07-06T07:12:59;11.43;;;10.43;;
56073;SDS011;41950;55.840;37.442;2022-07-06T07:15:24;11.32;;;10.23;;
56073;SDS011;41950;55.840;37.442;2022-07-06T07:17:50;10.45;;;9.38;;
56073;SDS011;41950;55.840;37.442;2022-07-06T07:20:16;10.88;;;9.95;;
56073;SDS011;41950;55.840;37.442;2022-07-06T07:22:41;11.82;;;10.23;;
56073;SDS011;41950;55.840;37.442;2022-07-06T07:25:07;12.27;;;10.50;;
56073;SDS011;41950;55.840;37.442;2022-07-06T07:27:33;11.10;;;10.02;;
56073;SDS011;41950;55.840;37.442;2022-07-06T07:29:59;10.13;;;9.23;;
56073;SDS011;41950;55.840;37.442;2022-07-06T07:32:24;9.80;;;8.82;;
56073;SDS011;41950;55.840;37.442;2022-07-06T07:34:50;13.27;;;10.00;;
56073;SDS011;41950;55.840;37.442;2022-07-06T07:37:16;11.05;;;9.95;;
56073;SDS011;41950;55.840;37.442;2022-07-06T07:39:41;10.48;;;9.57;;
56073;SDS011;41950;55.840;37.442;2022-07-06T07:42:07;10.48;;;9.57;;
56073;SDS011;41950;55.840;37.442;2022-07-06T07:44:33;10.82;;;9.82;;
56073;SDS011;41950;55.840;37.442;2022-07-06T07:46:59;10.57;;;9.50;;
56073;SDS011;41950;55.840;37.442;2022-07-06T07:49:24;10.30;;;9.40;;
56073;SDS011;41950;55.840;37.442;2022-07-06T07:51:50;10.32;;;9.27;;
56073;SDS011;41950;55.840;37.442;2022-07-06T07:54:16;11.55;;;10.45;;
56073;SDS011;41950;55.840;37.442;2022-07-06T07:56:41;11.75;;;10.60;;
56073;SDS011;41950;55.840;37.442;2022-07-06T07:59:07;11.55;;;10.48;;
56073;SDS011;41950;55.840;37.442;2022-07-06T08:01:33;10.15;;;9.35;;
56073;SDS011;41950;55.840;37.442;2022-07-06T08:03:59;10.85;;;9.93;;
56073;SDS011;41950;55.840;37.442;2022-07-06T08:06:25;11.10;;;10.10;;
56073;SDS011;41950;55.840;37.442;2022-07-06T08:08:50;11.45;;;10.43;;
56073;SDS011;41950;55.840;37.442;2022-07-06T08:11:16;11.10;;;10.10;;
56073;SDS011;41950;55.840;37.442;2022-07-06T08:13:42;10.82;;;9.93;;
56073;SDS011;41950;55.840;37.442;2022-07-06T08:16:08;11.07;;;10.18;;
56073;SDS011;41950;55.840;37.442;2022-07-06T08:18:35;10.68;;;9.77;;
56073;SDS011;41950;55.840;37.442;2022-07-06T08:21:00;11.02;;;10.10;;
56073;SDS011;41950;55.840;37.442;2022-07-06T08:23:26;11.02;;;9.98;;
56073;SDS011;41950;55.840;37.442;2022-07-06T08:25:52;12.25;;;10.38;;
56073;SDS011;41950;55.840;37.442;2022-07-06T08:28:17;11.35;;;10.40;;
56073;SDS011;41950;55.840;37.442;2022-07-06T08:30:42;12.27;;;11.23;;
56073;SDS011;41950;55.840;37.442;2022-07-06T08:33:08;11.80;;;10.80;;
56073;SDS011;41950;55.840;37.442;2022-07-06T08:35:34;11.80;;;10.70;;
56073;SDS011;41950;55.840;37.442;2022-07-06T08:37:59;12.07;;;11.07;;
56073;SDS011;41950;55.840;37.442;2022-07-06T08:40:25;12.20;;;11.20;;
56073;SDS011;41950;55.840;37.442;2022-07-06T08:42:53;12.30;;;11.20;;
56073;SDS011;41950;55.840;37.442;2022-07-06T08:45:19;11.85;;;10.88;;
56073;SDS011;41950;55.840;37.442;2022-07-06T08:47:45;13.13;;;12.02;;
56073;SDS011;41950;55.840;37.442;2022-07-06T08:50:14;12.32;;;11.23;;
56073;SDS011;41950;55.840;37.442;2022-07-06T08:52:41;12.80;;;11.75;;
56073;SDS011;41950;55.840;37.442;2022-07-06T08:55:10;13.45;;;12.45;;
56073;SDS011;41950;55.840;37.442;2022-07-06T08:57:37;13.02;;;11.93;;
56073;SDS011;41950;55.840;37.442;2022-07-06T09:00:06;11.63;;;10.63;;
56073;SDS011;41950;55.840;37.442;2022-07-06T09:02:34;12.30;;;11.20;;
56073;SDS011;41950;55.840;37.442;2022-07-06T09:05:02;13.20;;;12.07;;
56073;SDS011;41950;55.840;37.442;2022-07-06T09:07:28;12.00;;;11.02;;
56073;SDS011;41950;55.840;37.442;2022-07-06T09:09:55;13.13;;;11.75;;
56073;SDS011;41950;55.840;37.442;2022-07-06T09:12:22;12.40;;;11.30;;
56073;SDS011;41950;55.840;37.442;2022-07-06T09:14:54;13.15;;;11.75;;
56073;SDS011;41950;55.840;37.442;2022-07-06T09:17:20;12.85;;;11.70;;
56073;SDS011;41950;55.840;37.442;2022-07-06T09:19:46;12.77;;;11.68;;
56073;SDS011;41950;55.840;37.442;2022-07-06T09:22:24;12.77;;;11.68;;
56073;SDS011;41950;55.840;37.442;2022-07-06T09:24:50;12.70;;;11.57;;
56073;SDS011;41950;55.840;37.442;2022-07-06T09:27:16;11.70;;;10.70;;
56073;SDS011;41950;55.840;37.442;2022-07-06T09:29:42;11.65;;;10.45;;
56073;SDS011;41950;55.840;37.442;2022-07-06T09:32:08;12.60;;;11.60;;
56073;SDS011;41950;55.840;37.442;2022-07-06T09:34:46;11.25;;;10.25;;
56073;SDS011;41950;55.840;37.442;2022-07-06T09:37:12;11.88;;;10.88;;
56073;SDS011;41950;55.840;37.442;2022-07-06T09:39:39;14.45;;;11.55;;
56073;SDS011;41950;55.840;37.442;2022-07-06T09:42:06;12.52;;;11.50;;
56073;SDS011;41950;55.840;37.442;2022-07-06T09:44:34;12.02;;;10.77;;
56073;SDS011;41950;55.840;37.442;2022-07-06T09:47:08;11.98;;;10.98;;
56073;SDS011;41950;55.840;37.442;2022-07-06T09:49:35;11.68;;;10.77;;
56073;SDS011;41950;55.840;37.442;2022-07-06T09:52:03;11.07;;;10.07;;
56073;SDS011;41950;55.840;37.442;2022-07-06T09:54:30;11.90;;;10.90;;
56073;SDS011;41950;55.840;37.442;2022-07-06T09:56:57;10.75;;;9.85;;
56073;SDS011;41950;55.840;37.442;2022-07-06T09:59:27;11.48;;;10.38;;
56073;SDS011;41950;55.840;37.442;2022-07-06T10:01:56;11.00;;;10.10;;
56073;SDS011;41950;55.840;37.442;2022-07-06T10:04:24;10.07;;;9.18;;
56073;SDS011;41950;55.840;37.442;2022-07-06T10:06:50;10.15;;;9.23;;
56073;SDS011;41950;55.840;37.442;2022-07-06T10:09:18;10.82;;;9.75;;
56073;SDS011;41950;55.840;37.442;2022-07-06T10:11:49;11.05;;;10.05;;
56073;SDS011;41950;55.840;37.442;2022-07-06T10:14:17;10.93;;;9.80;;
56073;SDS011;41950;55.840;37.442;2022-07-06T10:16:46;10.90;;;9.82;;
56073;SDS011;41950;55.840;37.442;2022-07-06T10:19:12;10.20;;;9.13;;
56073;SDS011;41950;55.840;37.442;2022-07-06T10:21:39;11.02;;;10.02;;
56073;SDS011;41950;55.840;37.442;2022-07-06T10:24:06;9.45;;;8.65;;
56073;SDS011;41950;55.840;37.442;2022-07-06T10:26:33;10.50;;;9.50;;
56073;SDS011;41950;55.840;37.442;2022-07-06T10:29:01;10.52;;;9.73;;
56073;SDS011;41950;55.840;37.442;2022-07-06T10:31:28;10.77;;;9.77;;
56073;SDS011;41950;55.840;37.442;2022-07-06T10:33:58;14.57;;;10.98;;
56073;SDS011;41950;55.840;37.442;2022-07-06T10:36:25;9.60;;;8.70;;
56073;SDS011;41950;55.840;37.442;2022-07-06T10:38:52;10.30;;;9.20;;
56073;SDS011;41950;55.840;37.442;2022-07-06T10:41:18;11.07;;;10.18;;
56073;SDS011;41950;55.840;37.442;2022-07-06T10:43:55;10.70;;;9.88;;
56073;SDS011;41950;55.840;37.442;2022-07-06T10:46:23;12.07;;;10.95;;
56073;SDS011;41950;55.840;37.442;2022-07-06T10:48:52;10.65;;;9.68;;
56073;SDS011;41950;55.840;37.442;2022-07-06T10:51:28;9.80;;;8.90;;
56073;SDS011;41950;55.840;37.442;2022-07-06T10:59:01;10.07;;;9.27;;
56073;SDS011;41950;55.840;37.442;2022-07-06T11:01:37;10.18;;;9.27;;
56073;SDS011;41950;55.840;37.442;2022-07-06T11:06:31;9.48;;;8.73;;
56073;SDS011;41950;55.840;37.442;2022-07-06T11:08:59;9.50;;;8.60;;
56073;SDS011;41950;55.840;37.442;2022-07-06T11:19:14;9.95;;;9.05;;
56073;SDS011;41950;55.840;37.442;2022-07-06T11:24:34;9.95;;;9.07;;
56073;SDS011;41950;55.840;37.442;2022-07-06T11:26:59;9.88;;;9.07;;
56073;SDS011;41950;55.840;37.442;2022-07-06T11:29:26;8.60;;;7.85;;
56073;SDS011;41950;55.840;37.442;2022-07-06T11:31:56;8.52;;;7.85;;
56073;SDS011;41950;55.840;37.442;2022-07-06T11:34:31;8.50;;;7.80;;
56073;SDS011;41950;55.840;37.442;2022-07-06T11:36:58;9.25;;;8.55;;
56073;SDS011;41950;55.840;37.442;2022-07-06T11:39:26;8.93;;;8.10;;
56073;SDS011;41950;55.840;37.442;2022-07-06T11:41:56;9.45;;;8.65;;
56073;SDS011;41950;55.840;37.442;2022-07-06T11:44:22;9.25;;;8.55;;
56073;SDS011;41950;55.840;37.442;2022-07-06T11:46:48;9.30;;;8.40;;
56073;SDS011;41950;55.840;37.442;2022-07-06T11:49:14;8.77;;;7.82;;
56073;SDS011;41950;55.840;37.442;2022-07-06T11:51:40;9.27;;;8.48;;
56073;SDS011;41950;55.840;37.442;2022-07-06T11:54:25;9.80;;;8.82;;
56073;SDS011;41950;55.840;37.442;2022-07-06T11:56:55;10.02;;;8.68;;
56073;SDS011;41950;55.840;37.442;2022-07-06T11:59:27;9.48;;;8.57;;
56073;SDS011;41950;55.840;37.442;2022-07-06T12:02:08;9.57;;;8.68;;
56073;SDS011;41950;55.840;37.442;2022-07-06T12:04:40;9.02;;;8.32;;
56073;SDS011;41950;55.840;37.442;2022-07-06T12:07:08;8.13;;;7.30;;
56073;SDS011;41950;55.840;37.442;2022-07-06T12:09:37;8.13;;;7.43;;
56073;SDS011;41950;55.840;37.442;2022-07-06T12:12:03;8.80;;;8.00;;
56073;SDS011;41950;55.840;37.442;2022-07-06T12:14:30;9.05;;;8.25;;
56073;SDS011;41950;55.840;37.442;2022-07-06T12:17:02;8.13;;;7.53;;
56073;SDS011;41950;55.840;37.442;2022-07-06T12:19:32;7.90;;;7.20;;
56073;SDS011;41950;55.840;37.442;2022-07-06T12:21:58;9.68;;;8.77;;
56073;SDS011;41950;55.840;37.442;2022-07-06T12:24:24;8.02;;;7.13;;
56073;SDS011;41950;55.840;37.442;2022-07-06T12:26:52;8.05;;;7.22;;
56073;SDS011;41950;55.840;37.442;2022-07-06T12:29:19;7.90;;;7.20;;
56073;SDS011;41950;55.840;37.442;2022-07-06T12:31:53;8.38;;;7.57;;
56073;SDS011;41950;55.840;37.442;2022-07-06T12:36:56;8.30;;;7.50;;
56073;SDS011;41950;55.840;37.442;2022-07-06T12:39:26;8.00;;;7.18;;
56073;SDS011;41950;55.840;37.442;2022-07-06T12:41:53;7.80;;;7.10;;
56073;SDS011;41950;55.840;37.442;2022-07-06T12:44:24;8.25;;;7.55;;
56073;SDS011;41950;55.840;37.442;2022-07-06T12:47:12;7.97;;;7.28;;
56073;SDS011;41950;55.840;37.442;2022-07-06T12:49:37;8.60;;;7.68;;
56073;SDS011;41950;55.840;37.442;2022-07-06T12:52:11;7.57;;;6.88;;
56073;SDS011;41950;55.840;37.442;2022-07-06T12:59:43;8.90;;;8.02;;
56073;SDS011;41950;55.840;37.442;2022-07-06T13:02:16;8.75;;;7.93;;
56073;SDS011;41950;55.840;37.442;2022-07-06T13:05:03;8.38;;;7.70;;
56073;SDS011;41950;55.840;37.442;2022-07-06T13:07:33;8.40;;;7.70;;
56073;SDS011;41950;55.840;37.442;2022-07-06T13:10:03;8.10;;;7.30;;
56073;SDS011;41950;55.840;37.442;2022-07-06T13:12:30;8.20;;;7.50;;
56073;SDS011;41950;55.840;37.442;2022-07-06T13:14:56;8.05;;;7.30;;
56073;SDS011;41950;55.840;37.442;2022-07-06T13:17:22;8.48;;;7.68;;
56073;SDS011;41950;55.840;37.442;2022-07-06T13:19:47;8.40;;;7.60;;
56073;SDS011;41950;55.840;37.442;2022-07-06T13:22:13;7.47;;;6.88;;
56073;SDS011;41950;55.840;37.442;2022-07-06T13:24:39;8.32;;;7.38;;
56073;SDS011;41950;55.840;37.442;2022-07-06T13:27:05;8.52;;;7.72;;
56073;SDS011;41950;55.840;37.442;2022-07-06T13:29:31;8.45;;;7.75;;
56073;SDS011;41950;55.840;37.442;2022-07-06T13:31:56;9.57;;;8.65;;
56073;SDS011;41950;55.840;37.442;2022-07-06T13:34:22;8.35;;;7.55;;
56073;SDS011;41950;55.840;37.442;2022-07-06T13:36:48;8.95;;;8.10;;
56073;SDS011;41950;55.840;37.442;2022-07-06T13:39:14;8.82;;;7.93;;
56073;SDS011;41950;55.840;37.442;2022-07-06T13:41:42;8.80;;;8.00;;
56073;SDS011;41950;55.840;37.442;2022-07-06T13:44:08;8.57;;;7.72;;
56073;SDS011;41950;55.840;37.442;2022-07-06T13:46:34;8.63;;;7.88;;
56073;SDS011;41950;55.840;37.442;2022-07-06T13:49:10;8.75;;;7.95;;
56073;SDS011;41950;55.840;37.442;2022-07-06T13:51:36;9.25;;;8.32;;
56073;SDS011;41950;55.840;37.442;2022-07-06T13:54:01;8.77;;;7.97;;
56073;SDS011;41950;55.840;37.442;2022-07-06T13:56:27;8.50;;;7.63;;
56073;SDS011;41950;55.840;37.442;2022-07-06T13:58:53;9.45;;;7.60;;
56073;SDS011;41950;55.840;37.442;2022-07-06T14:01:19;8.60;;;7.90;;
56073;SDS011;41950;55.840;37.442;2022-07-06T14:03:45;8.77;;;8.00;;
56073;SDS011;41950;55.840;37.442;2022-07-06T14:06:11;8.32;;;7.53;;
56073;SDS011;41950;55.840;37.442;2022-07-06T14:08:37;8.20;;;7.40;;
56073;SDS011;41950;55.840;37.442;2022-07-06T14:11:04;7.53;;;6.82;;
56073;SDS011;41950;55.840;37.442;2022-07-06T14:13:32;7.72;;;7.00;;
56073;SDS011;41950;55.840;37.442;2022-07-06T14:15:58;7.68;;;6.97;;
56073;SDS011;41950;55.840;37.442;2022-07-06T14:18:24;9.02;;;7.20;;
56073;SDS011;41950;55.840;37.442;2022-07-06T14:20:50;8.63;;;7.80;;
56073;SDS011;41950;55.840;37.442;2022-07-06T14:23:16;8.80;;;7.90;;
56073;SDS011;41950;55.840;37.442;2022-07-06T14:25:42;11.45;;;8.00;;
56073;SDS011;41950;55.840;37.442;2022-07-06T14:28:10;7.03;;;6.35;;
56073;SDS011;41950;55.840;37.442;2022-07-06T14:30:39;7.55;;;6.85;;
56073;SDS011;41950;55.840;37.442;2022-07-06T14:33:08;7.70;;;6.70;;
56073;SDS011;41950;55.840;37.442;2022-07-06T14:35:35;7.37;;;6.47;;
56073;SDS011;41950;55.840;37.442;2022-07-06T14:38:03;6.65;;;5.97;;
56073;SDS011;41950;55.840;37.442;2022-07-06T14:40:30;9.35;;;8.30;;